sensor_id;sensor_type;location;lat;lon;timestamp;P1;durP1;ratioP1;P2;durP2;ratioP2
24153;SDS011;12312;53.362;-1.518;2024-03-02T00:01:23;15.20;;;7.32;;
24153;SDS011;12312;53.362;-1.518;2024-03-02T00:04:07;16.17;;;7.45;;
24153;SDS011;12312;53.362;-1.518;2024-03-02T00:06:52;11.05;;;6.68;;
24153;SDS011;12312;53.362;-1.518;2024-03-02T00:09:38;14.85;;;7.55;;
24153;SDS011;12312;53.362;-1.518;2024-03-02T00:12:23;10.48;;;6.15;;
24153;SDS011;12312;53.362;-1.518;2024-03-02T00:15:19;15.20;;;7.90;;
24153;SDS011;12312;53.362;-1.518;2024-03-02T00:18:30;16.33;;;6.80;;
24153;SDS011;12312;53.362;-1.518;2024-03-02T00:21:15;16.83;;;6.80;;
24153;SDS011;12312;53.362;-1.518;2024-03-02T00:24:04;13.70;;;7.50;;
24153;SDS011;12312;53.362;-1.518;2024-03-02T00:27:01;11.02;;;6.00;;
24153;SDS011;12312;53.362;-1.518;2024-03-02T00:29:47;17.58;;;7.15;;
24153;SDS011;12312;53.362;-1.518;2024-03-02T00:32:31;11.02;;;6.63;;
24153;SDS011;12312;53.362;-1.518;2024-03-02T00:35:16;12.88;;;7.72;;
24153;SDS011;12312;53.362;-1.518;2024-03-02T00:38:07;14.52;;;7.45;;
24153;SDS011;12312;53.362;-1.518;2024-03-02T00:40:51;11.55;;;7.03;;
24153;SDS011;12312;53.362;-1.518;2024-03-02T00:43:42;13.77;;;7.07;;
24153;SDS011;12312;53.362;-1.518;2024-03-02T00:46:29;15.50;;;7.25;;
24153;SDS011;12312;53.362;-1.518;2024-03-02T00:49:23;12.23;;;7.03;;
24153;SDS011;12312;53.362;-1.518;2024-03-02T00:52:08;10.68;;;6.10;;
24153;SDS011;12312;53.362;-1.518;2024-03-02T00:54:53;17.25;;;7.50;;
24153;SDS011;12312;53.362;-1.518;2024-03-02T00:57:41;13.63;;;8.05;;
24153;SDS011;12312;53.362;-1.518;2024-03-02T01:00:25;16.90;;;7.30;;
24153;SDS011;12312;53.362;-1.518;2024-03-02T01:03:09;16.88;;;8.50;;
24153;SDS011;12312;53.362;-1.518;2024-03-02T01:05:53;15.23;;;7.93;;
24153;SDS011;12312;53.362;-1.518;2024-03-02T01:08:38;14.63;;;8.35;;
24153;SDS011;12312;53.362;-1.518;2024-03-02T01:11:22;16.80;;;8.32;;
24153;SDS011;12312;53.362;-1.518;2024-03-02T01:14:06;14.20;;;7.47;;
24153;SDS011;12312;53.362;-1.518;2024-03-02T01:16:50;20.10;;;7.60;;
24153;SDS011;12312;53.362;-1.518;2024-03-02T01:19:35;18.95;;;7.07;;
24153;SDS011;12312;53.362;-1.518;2024-03-02T01:22:18;12.85;;;6.97;;
24153;SDS011;12312;53.362;-1.518;2024-03-02T01:25:08;13.20;;;6.97;;
24153;SDS011;12312;53.362;-1.518;2024-03-02T01:27:53;13.40;;;6.28;;
24153;SDS011;12312;53.362;-1.518;2024-03-02T01:30:37;10.98;;;6.82;;
24153;SDS011;12312;53.362;-1.518;2024-03-02T01:33:21;12.20;;;7.43;;
24153;SDS011;12312;53.362;-1.518;2024-03-02T01:36:05;16.67;;;7.82;;
24153;SDS011;12312;53.362;-1.518;2024-03-02T01:38:49;15.77;;;7.10;;
24153;SDS011;12312;53.362;-1.518;2024-03-02T01:41:33;14.23;;;7.78;;
24153;SDS011;12312;53.362;-1.518;2024-03-02T01:44:17;15.98;;;7.28;;
24153;SDS011;12312;53.362;-1.518;2024-03-02T01:47:01;13.88;;;7.15;;
24153;SDS011;12312;53.362;-1.518;2024-03-02T01:49:45;11.57;;;6.93;;
24153;SDS011;12312;53.362;-1.518;2024-03-02T01:52:29;20.65;;;8.63;;
24153;SDS011;12312;53.362;-1.518;2024-03-02T01:55:13;16.40;;;7.68;;
24153;SDS011;12312;53.362;-1.518;2024-03-02T01:57:57;14.00;;;7.50;;
24153;SDS011;12312;53.362;-1.518;2024-03-02T02:00:41;14.63;;;7.80;;
24153;SDS011;12312;53.362;-1.518;2024-03-02T02:03:25;19.92;;;7.65;;
24153;SDS011;12312;53.362;-1.518;2024-03-02T02:06:09;14.45;;;7.78;;
24153;SDS011;12312;53.362;-1.518;2024-03-02T02:08:53;16.38;;;8.05;;
24153;SDS011;12312;53.362;-1.518;2024-03-02T02:11:37;13.57;;;6.97;;
24153;SDS011;12312;53.362;-1.518;2024-03-02T02:14:22;10.57;;;7.50;;
24153;SDS011;12312;53.362;-1.518;2024-03-02T02:17:05;15.88;;;7.93;;
24153;SDS011;12312;53.362;-1.518;2024-03-02T02:19:50;16.48;;;8.13;;
24153;SDS011;12312;53.362;-1.518;2024-03-02T02:22:34;14.68;;;7.03;;
24153;SDS011;12312;53.362;-1.518;2024-03-02T02:25:18;14.30;;;6.88;;
24153;SDS011;12312;53.362;-1.518;2024-03-02T02:28:02;15.02;;;7.55;;
24153;SDS011;12312;53.362;-1.518;2024-03-02T02:30:46;13.95;;;7.53;;
24153;SDS011;12312;53.362;-1.518;2024-03-02T02:33:30;15.70;;;8.00;;
24153;SDS011;12312;53.362;-1.518;2024-03-02T02:36:14;16.08;;;7.68;;
24153;SDS011;12312;53.362;-1.518;2024-03-02T02:39:00;17.58;;;7.63;;
24153;SDS011;12312;53.362;-1.518;2024-03-02T02:41:50;11.65;;;6.65;;
24153;SDS011;12312;53.362;-1.518;2024-03-02T02:44:35;9.30;;;6.32;;
24153;SDS011;12312;53.362;-1.518;2024-03-02T02:47:19;12.57;;;7.75;;
24153;SDS011;12312;53.362;-1.518;2024-03-02T02:50:03;14.98;;;7.72;;
24153;SDS011;12312;53.362;-1.518;2024-03-02T02:52:48;13.70;;;7.40;;
24153;SDS011;12312;53.362;-1.518;2024-03-02T02:55:32;14.75;;;6.63;;
24153;SDS011;12312;53.362;-1.518;2024-03-02T02:58:16;16.40;;;8.38;;
24153;SDS011;12312;53.362;-1.518;2024-03-02T03:01:00;16.80;;;8.77;;
24153;SDS011;12312;53.362;-1.518;2024-03-02T03:03:44;18.73;;;8.60;;
24153;SDS011;12312;53.362;-1.518;2024-03-02T03:06:29;20.83;;;8.87;;
24153;SDS011;12312;53.362;-1.518;2024-03-02T03:09:13;14.77;;;8.02;;
24153;SDS011;12312;53.362;-1.518;2024-03-02T03:11:57;16.17;;;7.97;;
24153;SDS011;12312;53.362;-1.518;2024-03-02T03:14:41;18.25;;;8.75;;
24153;SDS011;12312;53.362;-1.518;2024-03-02T03:17:25;16.65;;;8.90;;
24153;SDS011;12312;53.362;-1.518;2024-03-02T03:20:10;20.73;;;9.13;;
24153;SDS011;12312;53.362;-1.518;2024-03-02T03:22:55;15.63;;;8.38;;
24153;SDS011;12312;53.362;-1.518;2024-03-02T03:25:39;22.17;;;9.45;;
24153;SDS011;12312;53.362;-1.518;2024-03-02T03:28:23;16.15;;;8.65;;
24153;SDS011;12312;53.362;-1.518;2024-03-02T03:31:07;14.73;;;8.23;;
24153;SDS011;12312;53.362;-1.518;2024-03-02T03:33:51;16.50;;;8.13;;
24153;SDS011;12312;53.362;-1.518;2024-03-02T03:36:35;17.10;;;7.97;;
24153;SDS011;12312;53.362;-1.518;2024-03-02T03:39:20;18.45;;;8.85;;
24153;SDS011;12312;53.362;-1.518;2024-03-02T03:42:04;14.88;;;8.23;;
24153;SDS011;12312;53.362;-1.518;2024-03-02T03:44:48;12.45;;;7.68;;
24153;SDS011;12312;53.362;-1.518;2024-03-02T03:47:33;14.50;;;7.55;;
24153;SDS011;12312;53.362;-1.518;2024-03-02T03:50:16;17.35;;;8.38;;
24153;SDS011;12312;53.362;-1.518;2024-03-02T03:53:00;17.30;;;8.07;;
24153;SDS011;12312;53.362;-1.518;2024-03-02T03:55:44;23.77;;;9.88;;
24153;SDS011;12312;53.362;-1.518;2024-03-02T03:58:30;18.92;;;9.18;;
24153;SDS011;12312;53.362;-1.518;2024-03-02T04:01:14;22.20;;;9.07;;
24153;SDS011;12312;53.362;-1.518;2024-03-02T04:03:58;15.85;;;8.23;;
24153;SDS011;12312;53.362;-1.518;2024-03-02T04:06:42;21.67;;;9.75;;
24153;SDS011;12312;53.362;-1.518;2024-03-02T04:09:26;22.02;;;10.88;;
24153;SDS011;12312;53.362;-1.518;2024-03-02T04:12:09;22.05;;;10.45;;
24153;SDS011;12312;53.362;-1.518;2024-03-02T04:14:53;21.75;;;10.75;;
24153;SDS011;12312;53.362;-1.518;2024-03-02T04:17:37;20.50;;;9.77;;
24153;SDS011;12312;53.362;-1.518;2024-03-02T04:20:21;24.92;;;10.75;;
24153;SDS011;12312;53.362;-1.518;2024-03-02T04:23:05;32.97;;;11.77;;
24153;SDS011;12312;53.362;-1.518;2024-03-02T04:25:49;26.65;;;11.65;;
24153;SDS011;12312;53.362;-1.518;2024-03-02T04:28:33;21.50;;;11.88;;
24153;SDS011;12312;53.362;-1.518;2024-03-02T04:31:17;23.75;;;10.88;;
24153;SDS011;12312;53.362;-1.518;2024-03-02T04:34:01;24.70;;;11.48;;
24153;SDS011;12312;53.362;-1.518;2024-03-02T04:36:45;19.20;;;11.30;;
24153;SDS011;12312;53.362;-1.518;2024-03-02T04:39:29;24.70;;;10.90;;
24153;SDS011;12312;53.362;-1.518;2024-03-02T04:42:13;26.65;;;11.60;;
24153;SDS011;12312;53.362;-1.518;2024-03-02T04:44:57;24.85;;;12.02;;
24153;SDS011;12312;53.362;-1.518;2024-03-02T04:47:41;27.50;;;12.10;;
24153;SDS011;12312;53.362;-1.518;2024-03-02T04:50:25;34.22;;;14.73;;
24153;SDS011;12312;53.362;-1.518;2024-03-02T04:53:09;30.60;;;14.45;;
24153;SDS011;12312;53.362;-1.518;2024-03-02T04:55:53;29.80;;;13.10;;
24153;SDS011;12312;53.362;-1.518;2024-03-02T04:58:56;33.13;;;13.23;;
24153;SDS011;12312;53.362;-1.518;2024-03-02T05:01:40;24.77;;;13.75;;
24153;SDS011;12312;53.362;-1.518;2024-03-02T05:04:24;30.65;;;13.40;;
24153;SDS011;12312;53.362;-1.518;2024-03-02T05:07:08;34.80;;;14.57;;
24153;SDS011;12312;53.362;-1.518;2024-03-02T05:09:52;37.03;;;15.00;;
24153;SDS011;12312;53.362;-1.518;2024-03-02T05:12:36;38.67;;;15.35;;
24153;SDS011;12312;53.362;-1.518;2024-03-02T05:15:26;30.60;;;14.38;;
24153;SDS011;12312;53.362;-1.518;2024-03-02T05:18:10;37.72;;;15.40;;
24153;SDS011;12312;53.362;-1.518;2024-03-02T05:20:54;33.47;;;14.27;;
24153;SDS011;12312;53.362;-1.518;2024-03-02T05:23:38;33.42;;;14.73;;
24153;SDS011;12312;53.362;-1.518;2024-03-02T05:26:22;33.35;;;15.63;;
24153;SDS011;12312;53.362;-1.518;2024-03-02T05:29:06;37.55;;;15.95;;
24153;SDS011;12312;53.362;-1.518;2024-03-02T05:31:50;36.15;;;16.42;;
24153;SDS011;12312;53.362;-1.518;2024-03-02T05:34:34;36.35;;;15.48;;
24153;SDS011;12312;53.362;-1.518;2024-03-02T05:37:19;39.70;;;17.13;;
24153;SDS011;12312;53.362;-1.518;2024-03-02T05:40:03;36.67;;;16.67;;
24153;SDS011;12312;53.362;-1.518;2024-03-02T05:42:49;35.40;;;15.90;;
24153;SDS011;12312;53.362;-1.518;2024-03-02T05:45:33;34.40;;;15.98;;
24153;SDS011;12312;53.362;-1.518;2024-03-02T05:48:17;38.85;;;16.23;;
24153;SDS011;12312;53.362;-1.518;2024-03-02T05:51:01;31.90;;;13.95;;
24153;SDS011;12312;53.362;-1.518;2024-03-02T05:53:45;27.52;;;12.82;;
24153;SDS011;12312;53.362;-1.518;2024-03-02T05:56:29;30.08;;;11.85;;
24153;SDS011;12312;53.362;-1.518;2024-03-02T05:59:13;26.73;;;12.07;;
24153;SDS011;12312;53.362;-1.518;2024-03-02T06:01:57;31.20;;;13.10;;
24153;SDS011;12312;53.362;-1.518;2024-03-02T06:04:41;34.22;;;12.95;;
24153;SDS011;12312;53.362;-1.518;2024-03-02T06:07:28;28.92;;;11.48;;
24153;SDS011;12312;53.362;-1.518;2024-03-02T06:10:12;25.40;;;11.55;;
24153;SDS011;12312;53.362;-1.518;2024-03-02T06:12:56;25.25;;;11.18;;
24153;SDS011;12312;53.362;-1.518;2024-03-02T06:15:42;32.63;;;12.93;;
24153;SDS011;12312;53.362;-1.518;2024-03-02T06:18:26;34.17;;;14.65;;
24153;SDS011;12312;53.362;-1.518;2024-03-02T06:21:11;32.25;;;12.95;;
24153;SDS011;12312;53.362;-1.518;2024-03-02T06:23:55;33.67;;;13.27;;
24153;SDS011;12312;53.362;-1.518;2024-03-02T06:26:40;34.93;;;12.97;;
24153;SDS011;12312;53.362;-1.518;2024-03-02T06:29:24;34.38;;;13.63;;
24153;SDS011;12312;53.362;-1.518;2024-03-02T06:32:08;33.03;;;13.07;;
24153;SDS011;12312;53.362;-1.518;2024-03-02T06:34:52;28.35;;;11.93;;
24153;SDS011;12312;53.362;-1.518;2024-03-02T06:37:36;27.85;;;11.63;;
24153;SDS011;12312;53.362;-1.518;2024-03-02T06:43:05;24.63;;;10.55;;
24153;SDS011;12312;53.362;-1.518;2024-03-02T06:45:50;50.22;;;13.95;;
24153;SDS011;12312;53.362;-1.518;2024-03-02T06:48:34;30.05;;;11.05;;
24153;SDS011;12312;53.362;-1.518;2024-03-02T06:51:18;39.38;;;11.63;;
24153;SDS011;12312;53.362;-1.518;2024-03-02T06:54:02;68.78;;;13.48;;
24153;SDS011;12312;53.362;-1.518;2024-03-02T06:56:46;29.52;;;10.93;;
24153;SDS011;12312;53.362;-1.518;2024-03-02T06:59:30;27.95;;;11.13;;
24153;SDS011;12312;53.362;-1.518;2024-03-02T07:02:14;38.35;;;13.57;;
24153;SDS011;12312;53.362;-1.518;2024-03-02T07:04:58;46.03;;;14.05;;
24153;SDS011;12312;53.362;-1.518;2024-03-02T07:07:42;42.63;;;15.77;;
24153;SDS011;12312;53.362;-1.518;2024-03-02T07:10:26;35.28;;;14.50;;
24153;SDS011;12312;53.362;-1.518;2024-03-02T07:13:10;30.08;;;12.20;;
24153;SDS011;12312;53.362;-1.518;2024-03-02T07:15:54;39.97;;;11.85;;
24153;SDS011;12312;53.362;-1.518;2024-03-02T07:18:47;33.95;;;11.65;;
24153;SDS011;12312;53.362;-1.518;2024-03-02T07:21:35;30.58;;;12.60;;
24153;SDS011;12312;53.362;-1.518;2024-03-02T07:24:19;43.08;;;12.60;;
24153;SDS011;12312;53.362;-1.518;2024-03-02T07:27:03;32.47;;;12.38;;
24153;SDS011;12312;53.362;-1.518;2024-03-02T07:29:47;33.42;;;13.35;;
24153;SDS011;12312;53.362;-1.518;2024-03-02T07:32:32;35.03;;;12.75;;
24153;SDS011;12312;53.362;-1.518;2024-03-02T07:35:16;34.70;;;13.20;;
24153;SDS011;12312;53.362;-1.518;2024-03-02T07:38:02;39.35;;;13.15;;
24153;SDS011;12312;53.362;-1.518;2024-03-02T07:40:46;108.95;;;18.23;;
24153;SDS011;12312;53.362;-1.518;2024-03-02T07:43:31;30.88;;;13.13;;
24153;SDS011;12312;53.362;-1.518;2024-03-02T07:46:18;33.15;;;13.35;;
24153;SDS011;12312;53.362;-1.518;2024-03-02T07:49:02;30.13;;;11.77;;
24153;SDS011;12312;53.362;-1.518;2024-03-02T07:51:46;24.20;;;10.20;;
24153;SDS011;12312;53.362;-1.518;2024-03-02T07:54:30;85.40;;;29.00;;
24153;SDS011;12312;53.362;-1.518;2024-03-02T07:57:14;19.83;;;9.52;;
24153;SDS011;12312;53.362;-1.518;2024-03-02T07:59:58;19.90;;;8.80;;
24153;SDS011;12312;53.362;-1.518;2024-03-02T08:02:42;26.13;;;10.20;;
24153;SDS011;12312;53.362;-1.518;2024-03-02T08:05:27;22.48;;;9.98;;
24153;SDS011;12312;53.362;-1.518;2024-03-02T08:08:11;28.23;;;13.02;;
24153;SDS011;12312;53.362;-1.518;2024-03-02T08:10:55;29.20;;;11.18;;
24153;SDS011;12312;53.362;-1.518;2024-03-02T08:13:39;22.50;;;10.30;;
24153;SDS011;12312;53.362;-1.518;2024-03-02T08:16:23;22.67;;;9.98;;
24153;SDS011;12312;53.362;-1.518;2024-03-02T08:19:09;28.70;;;12.10;;
24153;SDS011;12312;53.362;-1.518;2024-03-02T08:21:53;25.23;;;11.57;;
24153;SDS011;12312;53.362;-1.518;2024-03-02T08:24:37;24.08;;;10.90;;
24153;SDS011;12312;53.362;-1.518;2024-03-02T08:27:21;20.73;;;9.63;;
24153;SDS011;12312;53.362;-1.518;2024-03-02T08:30:05;19.25;;;9.73;;
24153;SDS011;12312;53.362;-1.518;2024-03-02T08:32:51;20.55;;;8.77;;
24153;SDS011;12312;53.362;-1.518;2024-03-02T08:35:36;20.55;;;9.07;;
24153;SDS011;12312;53.362;-1.518;2024-03-02T08:38:20;26.25;;;10.82;;
24153;SDS011;12312;53.362;-1.518;2024-03-02T08:41:05;24.55;;;9.85;;
24153;SDS011;12312;53.362;-1.518;2024-03-02T08:43:49;21.17;;;9.93;;
24153;SDS011;12312;53.362;-1.518;2024-03-02T08:46:33;21.42;;;9.52;;
24153;SDS011;12312;53.362;-1.518;2024-03-02T08:49:17;23.75;;;9.73;;
24153;SDS011;12312;53.362;-1.518;2024-03-02T08:52:01;22.77;;;9.98;;
24153;SDS011;12312;53.362;-1.518;2024-03-02T08:54:45;20.50;;;9.30;;
24153;SDS011;12312;53.362;-1.518;2024-03-02T08:57:29;13.13;;;7.32;;
24153;SDS011;12312;53.362;-1.518;2024-03-02T09:00:13;15.25;;;8.13;;
24153;SDS011;12312;53.362;-1.518;2024-03-02T09:02:57;14.50;;;6.97;;
24153;SDS011;12312;53.362;-1.518;2024-03-02T09:05:42;19.42;;;7.97;;
24153;SDS011;12312;53.362;-1.518;2024-03-02T09:08:26;12.13;;;6.88;;
24153;SDS011;12312;53.362;-1.518;2024-03-02T09:11:10;21.35;;;7.40;;
24153;SDS011;12312;53.362;-1.518;2024-03-02T09:13:55;17.65;;;7.03;;
24153;SDS011;12312;53.362;-1.518;2024-03-02T09:16:40;19.45;;;7.53;;
24153;SDS011;12312;53.362;-1.518;2024-03-02T09:19:24;14.57;;;6.60;;
24153;SDS011;12312;53.362;-1.518;2024-03-02T09:22:08;11.82;;;5.57;;
24153;SDS011;12312;53.362;-1.518;2024-03-02T09:24:53;15.70;;;6.13;;
24153;SDS011;12312;53.362;-1.518;2024-03-02T09:27:38;15.85;;;6.15;;
24153;SDS011;12312;53.362;-1.518;2024-03-02T09:30:23;13.45;;;6.50;;
24153;SDS011;12312;53.362;-1.518;2024-03-02T09:33:07;15.60;;;6.53;;
24153;SDS011;12312;53.362;-1.518;2024-03-02T09:35:51;21.35;;;7.60;;
24153;SDS011;12312;53.362;-1.518;2024-03-02T09:38:35;12.23;;;5.75;;
24153;SDS011;12312;53.362;-1.518;2024-03-02T09:41:20;12.48;;;5.38;;
24153;SDS011;12312;53.362;-1.518;2024-03-02T09:44:05;10.10;;;5.25;;
24153;SDS011;12312;53.362;-1.518;2024-03-02T09:46:50;14.27;;;6.60;;
24153;SDS011;12312;53.362;-1.518;2024-03-02T09:49:34;15.50;;;5.18;;
24153;SDS011;12312;53.362;-1.518;2024-03-02T09:52:19;12.77;;;5.85;;
24153;SDS011;12312;53.362;-1.518;2024-03-02T09:55:03;13.93;;;5.88;;
24153;SDS011;12312;53.362;-1.518;2024-03-02T09:57:48;9.48;;;4.63;;
24153;SDS011;12312;53.362;-1.518;2024-03-02T10:00:33;13.27;;;5.20;;
24153;SDS011;12312;53.362;-1.518;2024-03-02T10:03:18;22.60;;;5.60;;
24153;SDS011;12312;53.362;-1.518;2024-03-02T10:06:21;11.45;;;5.13;;
24153;SDS011;12312;53.362;-1.518;2024-03-02T10:09:06;8.35;;;4.65;;
24153;SDS011;12312;53.362;-1.518;2024-03-02T10:11:50;12.15;;;5.22;;
24153;SDS011;12312;53.362;-1.518;2024-03-02T10:14:34;8.68;;;3.78;;
24153;SDS011;12312;53.362;-1.518;2024-03-02T10:17:19;8.52;;;4.30;;
24153;SDS011;12312;53.362;-1.518;2024-03-02T10:25:55;8.88;;;4.28;;
24153;SDS011;12312;53.362;-1.518;2024-03-02T10:28:45;13.00;;;4.07;;
24153;SDS011;12312;53.362;-1.518;2024-03-02T10:31:31;7.85;;;3.22;;
24153;SDS011;12312;53.362;-1.518;2024-03-02T10:34:16;12.60;;;3.20;;
24153;SDS011;12312;53.362;-1.518;2024-03-02T10:37:00;6.18;;;3.15;;
24153;SDS011;12312;53.362;-1.518;2024-03-02T10:39:45;10.45;;;3.55;;
24153;SDS011;12312;53.362;-1.518;2024-03-02T10:45:15;8.77;;;4.43;;
24153;SDS011;12312;53.362;-1.518;2024-03-02T10:48:00;7.90;;;3.53;;
24153;SDS011;12312;53.362;-1.518;2024-03-02T10:50:45;9.93;;;4.30;;
24153;SDS011;12312;53.362;-1.518;2024-03-02T10:53:29;8.90;;;4.78;;
24153;SDS011;12312;53.362;-1.518;2024-03-02T10:56:15;7.25;;;3.60;;
24153;SDS011;12312;53.362;-1.518;2024-03-02T11:02:05;10.68;;;3.13;;
24153;SDS011;12312;53.362;-1.518;2024-03-02T11:04:53;9.68;;;2.75;;
24153;SDS011;12312;53.362;-1.518;2024-03-02T11:07:39;5.00;;;2.97;;
24153;SDS011;12312;53.362;-1.518;2024-03-02T11:10:24;8.00;;;4.20;;
24153;SDS011;12312;53.362;-1.518;2024-03-02T11:13:09;5.40;;;3.45;;
24153;SDS011;12312;53.362;-1.518;2024-03-02T11:15:56;8.30;;;3.40;;
24153;SDS011;12312;53.362;-1.518;2024-03-02T11:18:43;11.02;;;3.90;;
24153;SDS011;12312;53.362;-1.518;2024-03-02T11:21:28;9.02;;;3.92;;
24153;SDS011;12312;53.362;-1.518;2024-03-02T11:27:10;7.82;;;4.35;;
24153;SDS011;12312;53.362;-1.518;2024-03-02T11:29:56;8.43;;;3.85;;
24153;SDS011;12312;53.362;-1.518;2024-03-02T11:32:40;7.00;;;3.47;;
24153;SDS011;12312;53.362;-1.518;2024-03-02T11:35:27;7.82;;;3.42;;
24153;SDS011;12312;53.362;-1.518;2024-03-02T11:38:12;9.48;;;3.72;;
24153;SDS011;12312;53.362;-1.518;2024-03-02T11:40:56;8.30;;;3.70;;
24153;SDS011;12312;53.362;-1.518;2024-03-02T11:43:40;10.75;;;3.92;;
24153;SDS011;12312;53.362;-1.518;2024-03-02T11:46:27;15.00;;;4.65;;
24153;SDS011;12312;53.362;-1.518;2024-03-02T11:49:15;10.75;;;5.10;;
24153;SDS011;12312;53.362;-1.518;2024-03-02T11:52:02;12.82;;;4.05;;
24153;SDS011;12312;53.362;-1.518;2024-03-02T11:54:48;10.73;;;4.00;;
24153;SDS011;12312;53.362;-1.518;2024-03-02T11:57:32;10.50;;;3.95;;
24153;SDS011;12312;53.362;-1.518;2024-03-02T12:00:17;7.97;;;2.97;;
24153;SDS011;12312;53.362;-1.518;2024-03-02T12:03:05;14.10;;;3.92;;
24153;SDS011;12312;53.362;-1.518;2024-03-02T12:05:51;13.07;;;4.82;;
24153;SDS011;12312;53.362;-1.518;2024-03-02T12:08:37;10.10;;;3.45;;
24153;SDS011;12312;53.362;-1.518;2024-03-02T12:11:21;16.20;;;4.22;;
24153;SDS011;12312;53.362;-1.518;2024-03-02T12:14:10;9.98;;;3.90;;
24153;SDS011;12312;53.362;-1.518;2024-03-02T12:16:56;6.35;;;2.92;;
24153;SDS011;12312;53.362;-1.518;2024-03-02T12:19:42;10.32;;;3.72;;
24153;SDS011;12312;53.362;-1.518;2024-03-02T12:22:26;9.55;;;3.63;;
24153;SDS011;12312;53.362;-1.518;2024-03-02T12:25:10;10.52;;;3.08;;
24153;SDS011;12312;53.362;-1.518;2024-03-02T12:27:54;12.63;;;3.35;;
24153;SDS011;12312;53.362;-1.518;2024-03-02T12:30:40;13.93;;;3.47;;
24153;SDS011;12312;53.362;-1.518;2024-03-02T12:33:24;13.40;;;4.18;;
24153;SDS011;12312;53.362;-1.518;2024-03-02T12:36:10;8.07;;;4.03;;
24153;SDS011;12312;53.362;-1.518;2024-03-02T12:38:57;9.82;;;3.30;;
24153;SDS011;12312;53.362;-1.518;2024-03-02T12:41:41;8.20;;;2.83;;
24153;SDS011;12312;53.362;-1.518;2024-03-02T12:44:25;8.80;;;2.72;;
24153;SDS011;12312;53.362;-1.518;2024-03-02T12:47:09;2.08;;;1.30;;
24153;SDS011;12312;53.362;-1.518;2024-03-02T12:49:53;4.72;;;1.33;;
24153;SDS011;12312;53.362;-1.518;2024-03-02T12:52:38;1.83;;;1.15;;
24153;SDS011;12312;53.362;-1.518;2024-03-02T12:55:22;4.18;;;1.30;;
24153;SDS011;12312;53.362;-1.518;2024-03-02T12:58:07;3.75;;;1.50;;
24153;SDS011;12312;53.362;-1.518;2024-03-02T13:00:51;5.78;;;0.75;;
24153;SDS011;12312;53.362;-1.518;2024-03-02T13:03:49;2.97;;;1.05;;
24153;SDS011;12312;53.362;-1.518;2024-03-02T13:06:35;1.27;;;0.77;;
24153;SDS011;12312;53.362;-1.518;2024-03-02T13:09:19;1.17;;;1.08;;
24153;SDS011;12312;53.362;-1.518;2024-03-02T13:12:04;1.55;;;0.80;;
24153;SDS011;12312;53.362;-1.518;2024-03-02T13:14:49;1.25;;;1.15;;
24153;SDS011;12312;53.362;-1.518;2024-03-02T13:17:36;0.82;;;0.82;;
24153;SDS011;12312;53.362;-1.518;2024-03-02T13:20:20;1.02;;;0.88;;
24153;SDS011;12312;53.362;-1.518;2024-03-02T13:23:04;0.80;;;0.77;;
24153;SDS011;12312;53.362;-1.518;2024-03-02T13:25:49;2.90;;;1.15;;
24153;SDS011;12312;53.362;-1.518;2024-03-02T13:28:33;1.48;;;1.10;;
24153;SDS011;12312;53.362;-1.518;2024-03-02T13:31:17;2.38;;;1.13;;
24153;SDS011;12312;53.362;-1.518;2024-03-02T13:34:01;1.67;;;1.20;;
24153;SDS011;12312;53.362;-1.518;2024-03-02T13:36:45;2.35;;;1.02;;
24153;SDS011;12312;53.362;-1.518;2024-03-02T13:39:29;2.35;;;1.42;;
24153;SDS011;12312;53.362;-1.518;2024-03-02T13:42:14;3.28;;;1.23;;
24153;SDS011;12312;53.362;-1.518;2024-03-02T13:44:58;1.67;;;1.38;;
24153;SDS011;12312;53.362;-1.518;2024-03-02T13:47:42;1.85;;;1.33;;
24153;SDS011;12312;53.362;-1.518;2024-03-02T13:50:26;1.65;;;1.30;;
24153;SDS011;12312;53.362;-1.518;2024-03-02T13:53:10;2.22;;;1.25;;
24153;SDS011;12312;53.362;-1.518;2024-03-02T13:55:54;1.67;;;1.20;;
24153;SDS011;12312;53.362;-1.518;2024-03-02T13:58:39;4.65;;;1.42;;
24153;SDS011;12312;53.362;-1.518;2024-03-02T14:01:23;1.63;;;1.08;;
24153;SDS011;12312;53.362;-1.518;2024-03-02T14:04:07;2.42;;;1.30;;
24153;SDS011;12312;53.362;-1.518;2024-03-02T14:06:51;1.65;;;1.23;;
24153;SDS011;12312;53.362;-1.518;2024-03-02T14:09:37;3.28;;;1.20;;
24153;SDS011;12312;53.362;-1.518;2024-03-02T14:12:20;1.48;;;1.10;;
24153;SDS011;12312;53.362;-1.518;2024-03-02T14:15:06;2.40;;;1.33;;
24153;SDS011;12312;53.362;-1.518;2024-03-02T14:17:50;2.70;;;1.27;;
24153;SDS011;12312;53.362;-1.518;2024-03-02T14:20:34;0.80;;;0.80;;
24153;SDS011;12312;53.362;-1.518;2024-03-02T14:23:18;2.58;;;1.88;;
24153;SDS011;12312;53.362;-1.518;2024-03-02T14:26:05;1.02;;;1.00;;
24153;SDS011;12312;53.362;-1.518;2024-03-02T14:28:49;1.48;;;0.85;;
24153;SDS011;12312;53.362;-1.518;2024-03-02T14:31:34;4.47;;;1.17;;
24153;SDS011;12312;53.362;-1.518;2024-03-02T14:34:18;1.27;;;1.02;;
24153;SDS011;12312;53.362;-1.518;2024-03-02T14:37:02;2.17;;;1.10;;
24153;SDS011;12312;53.362;-1.518;2024-03-02T14:39:46;1.30;;;1.10;;
24153;SDS011;12312;53.362;-1.518;2024-03-02T14:42:31;0.75;;;0.70;;
24153;SDS011;12312;53.362;-1.518;2024-03-02T14:45:15;1.17;;;0.95;;
24153;SDS011;12312;53.362;-1.518;2024-03-02T14:47:59;2.60;;;1.08;;
24153;SDS011;12312;53.362;-1.518;2024-03-02T14:50:43;1.73;;;1.25;;
24153;SDS011;12312;53.362;-1.518;2024-03-02T14:53:28;3.05;;;1.00;;
24153;SDS011;12312;53.362;-1.518;2024-03-02T14:56:12;1.75;;;1.45;;
24153;SDS011;12312;53.362;-1.518;2024-03-02T14:58:59;2.95;;;1.50;;
24153;SDS011;12312;53.362;-1.518;2024-03-02T15:01:43;2.03;;;1.27;;
24153;SDS011;12312;53.362;-1.518;2024-03-02T15:04:28;2.55;;;1.50;;
24153;SDS011;12312;53.362;-1.518;2024-03-02T15:07:12;3.50;;;1.67;;
24153;SDS011;12312;53.362;-1.518;2024-03-02T15:09:56;3.10;;;1.90;;
24153;SDS011;12312;53.362;-1.518;2024-03-02T15:12:40;3.42;;;1.95;;
24153;SDS011;12312;53.362;-1.518;2024-03-02T15:15:24;2.15;;;1.08;;
24153;SDS011;12312;53.362;-1.518;2024-03-02T15:18:08;2.15;;;1.25;;
24153;SDS011;12312;53.362;-1.518;2024-03-02T15:20:52;1.15;;;1.05;;
24153;SDS011;12312;53.362;-1.518;2024-03-02T15:23:37;1.80;;;1.30;;
24153;SDS011;12312;53.362;-1.518;2024-03-02T15:26:21;4.40;;;1.60;;
24153;SDS011;12312;53.362;-1.518;2024-03-02T15:29:05;3.00;;;1.70;;
24153;SDS011;12312;53.362;-1.518;2024-03-02T15:31:48;1.58;;;1.27;;
24153;SDS011;12312;53.362;-1.518;2024-03-02T15:34:33;2.72;;;1.40;;
24153;SDS011;12312;53.362;-1.518;2024-03-02T15:37:17;2.65;;;1.35;;
24153;SDS011;12312;53.362;-1.518;2024-03-02T15:40:01;2.67;;;1.20;;
24153;SDS011;12312;53.362;-1.518;2024-03-02T15:42:49;1.45;;;1.15;;
24153;SDS011;12312;53.362;-1.518;2024-03-02T15:45:33;3.30;;;1.60;;
24153;SDS011;12312;53.362;-1.518;2024-03-02T15:48:18;1.88;;;1.25;;
24153;SDS011;12312;53.362;-1.518;2024-03-02T15:51:02;2.65;;;1.60;;
24153;SDS011;12312;53.362;-1.518;2024-03-02T15:53:47;1.05;;;0.93;;
24153;SDS011;12312;53.362;-1.518;2024-03-02T15:56:31;1.27;;;1.10;;
24153;SDS011;12312;53.362;-1.518;2024-03-02T15:59:15;1.50;;;1.08;;
24153;SDS011;12312;53.362;-1.518;2024-03-02T16:01:59;1.73;;;1.20;;
24153;SDS011;12312;53.362;-1.518;2024-03-02T16:04:43;1.33;;;0.93;;
24153;SDS011;12312;53.362;-1.518;2024-03-02T16:07:27;0.88;;;0.88;;
24153;SDS011;12312;53.362;-1.518;2024-03-02T16:10:11;1.63;;;1.00;;
24153;SDS011;12312;53.362;-1.518;2024-03-02T16:12:55;1.23;;;1.13;;
24153;SDS011;12312;53.362;-1.518;2024-03-02T16:15:43;0.77;;;0.73;;
24153;SDS011;12312;53.362;-1.518;2024-03-02T16:18:27;1.30;;;1.00;;
24153;SDS011;12312;53.362;-1.518;2024-03-02T16:21:11;0.88;;;0.80;;
24153;SDS011;12312;53.362;-1.518;2024-03-02T16:23:56;3.00;;;1.07;;